NCAR-RAP Real-Time Weather Data

Output produced by METARs form (01 December 2020  17:36 UTC)
found at http://weather.rap.ucar.edu/surface/
 
KMAF 011653Z 22012KT 10SM CLR 10/M08 A3001 RMK AO2 SLP148 T01001078
KMAF 011553Z 22010KT 10SM CLR 07/M11 A3003 RMK AO2 SLP160 T00671106
KMAF 011453Z 22012KT 10SM CLR 04/M13 A3002 RMK AO2 SLP159 T00391128 55007
KMAF 011353Z 21011KT 10SM CLR 02/M14 A3002 RMK AO2 SLP158 T00221139
KMAF 011253Z 20011KT 10SM CLR 03/M14 A3003 RMK AO2 SLP162 T00281144
KMAF 011153Z 21011KT 10SM CLR 03/M14 A3005 RMK AO2 SLP164 T00331144 10033 20017 58021
KMAF 011053Z AUTO 21011KT 10SM CLR 03/M16 A3007 RMK AO2 SLP170 T00281156
KMAF 010953Z AUTO 21012KT 10SM CLR 03/M17 A3009 RMK AO2 SLP179 T00331167
KMAF 010853Z AUTO 21011KT 10SM CLR 03/M17 A3011 RMK AO2 SLP187 T00281167 56024
KMAF 010753Z AUTO 20008KT 10SM CLR 02/M16 A3013 RMK AO2 SLP196 T00221161
KMAF 010653Z AUTO 21007KT 10SM CLR 02/M16 A3017 RMK AO2 SLP208 T00221156
KMAF 010553Z AUTO 20005KT 10SM CLR 02/M14 A3019 RMK AO2 SLP218 T00221139 10089 20022 401061039 58017
KMAF 010453Z 19009KT 10SM CLR 04/M15 A3022 RMK AO2 SLP227 T00391150